sensor_id;sensor_type;location;lat;lon;timestamp;pressure;altitude;pressure_sealevel;temperature;humidity
60705;BME280;46545;38.014;-7.874;2024-03-23T00:55:10;98357.53;;;20.14;79.78
60705;BME280;46545;38.014;-7.874;2024-03-23T00:57:11;98360.59;;;20.04;80.85
60705;BME280;46545;38.014;-7.874;2024-03-23T00:59:12;98365.88;;;20.18;80.03
60705;BME280;46545;38.014;-7.874;2024-03-23T01:01:14;98356.41;;;20.06;81.12
60705;BME280;46545;38.014;-7.874;2024-03-23T01:03:14;98346.19;;;20.03;81.30
60705;BME280;46545;38.014;-7.874;2024-03-23T01:05:15;98345.84;;;20.05;81.47
60705;BME280;46545;38.014;-7.874;2024-03-23T01:07:16;98346.84;;;19.91;82.57
60705;BME280;46545;38.014;-7.874;2024-03-23T01:09:16;98344.13;;;19.91;82.96
60705;BME280;46545;38.014;-7.874;2024-03-23T01:11:17;98347.94;;;19.82;83.82
60705;BME280;46545;38.014;-7.874;2024-03-23T01:13:18;98345.22;;;19.73;84.77
60705;BME280;46545;38.014;-7.874;2024-03-23T01:15:21;98328.44;;;19.80;84.40
60705;BME280;46545;38.014;-7.874;2024-03-23T01:17:22;98337.84;;;19.65;85.13
60705;BME280;46545;38.014;-7.874;2024-03-23T01:19:23;98344.22;;;19.69;84.87
60705;BME280;46545;38.014;-7.874;2024-03-23T01:21:23;98331.47;;;19.87;83.34
60705;BME280;46545;38.014;-7.874;2024-03-23T01:23:24;98335.94;;;19.91;83.20
60705;BME280;46545;38.014;-7.874;2024-03-23T01:25:25;98339.31;;;19.97;82.58
60705;BME280;46545;38.014;-7.874;2024-03-23T01:27:25;98339.63;;;19.87;82.59
60705;BME280;46545;38.014;-7.874;2024-03-23T01:29:26;98342.50;;;19.90;82.18
60705;BME280;46545;38.014;-7.874;2024-03-23T01:31:27;98331.94;;;19.98;80.86
60705;BME280;46545;38.014;-7.874;2024-03-23T01:33:27;98329.06;;;20.03;80.37
60705;BME280;46545;38.014;-7.874;2024-03-23T01:35:28;98326.66;;;20.10;79.58
60705;BME280;46545;38.014;-7.874;2024-03-23T01:37:29;98320.25;;;20.14;78.83
60705;BME280;46545;38.014;-7.874;2024-03-23T01:39:30;98321.84;;;20.07;79.11
60705;BME280;46545;38.014;-7.874;2024-03-23T01:41:30;98318.81;;;20.08;78.60
60705;BME280;46545;38.014;-7.874;2024-03-23T01:43:31;98317.09;;;19.95;80.09
60705;BME280;46545;38.014;-7.874;2024-03-23T01:45:32;98314.69;;;19.93;80.65
60705;BME280;46545;38.014;-7.874;2024-03-23T01:47:33;98323.63;;;19.94;80.53
60705;BME280;46545;38.014;-7.874;2024-03-23T01:49:34;98311.31;;;19.88;81.74
60705;BME280;46545;38.014;-7.874;2024-03-23T01:51:36;98319.81;;;19.95;82.04
60705;BME280;46545;38.014;-7.874;2024-03-23T01:53:36;98311.63;;;19.78;82.94
60705;BME280;46545;38.014;-7.874;2024-03-23T01:55:37;98310.03;;;19.68;83.69
60705;BME280;46545;38.014;-7.874;2024-03-23T01:57:41;98306.84;;;19.66;84.43
60705;BME280;46545;38.014;-7.874;2024-03-23T01:59:42;98310.69;;;19.73;84.41
60705;BME280;46545;38.014;-7.874;2024-03-23T02:01:44;98311.34;;;19.70;84.35
60705;BME280;46545;38.014;-7.874;2024-03-23T02:03:45;98308.25;;;19.63;85.21
60705;BME280;46545;38.014;-7.874;2024-03-23T02:05:46;98302.50;;;19.56;85.85
60705;BME280;46545;38.014;-7.874;2024-03-23T02:07:46;98314.47;;;19.55;85.85
60705;BME280;46545;38.014;-7.874;2024-03-23T02:09:47;98298.66;;;19.48;86.45
60705;BME280;46545;38.014;-7.874;2024-03-23T02:11:48;98300.88;;;19.55;85.31
60705;BME280;46545;38.014;-7.874;2024-03-23T02:13:48;98290.50;;;19.57;84.67
60705;BME280;46545;38.014;-7.874;2024-03-23T02:15:49;98288.75;;;19.61;84.23
60705;BME280;46545;38.014;-7.874;2024-03-23T02:17:50;98280.75;;;19.56;84.25
60705;BME280;46545;38.014;-7.874;2024-03-23T02:19:50;98277.88;;;19.52;83.32
60705;BME280;46545;38.014;-7.874;2024-03-23T02:21:51;98283.97;;;19.58;81.99
60705;BME280;46545;38.014;-7.874;2024-03-23T02:23:52;98279.47;;;19.62;81.04
60705;BME280;46545;38.014;-7.874;2024-03-23T02:25:52;98278.81;;;19.65;80.80
60705;BME280;46545;38.014;-7.874;2024-03-23T02:27:53;98275.66;;;19.72;79.58
60705;BME280;46545;38.014;-7.874;2024-03-23T02:29:59;98279.97;;;19.82;79.18
60705;BME280;46545;38.014;-7.874;2024-03-23T02:31:59;98277.44;;;19.77;79.59
60705;BME280;46545;38.014;-7.874;2024-03-23T02:34:00;98274.84;;;19.80;77.90
60705;BME280;46545;38.014;-7.874;2024-03-23T02:36:01;98270.53;;;19.79;77.82
60705;BME280;46545;38.014;-7.874;2024-03-23T02:38:01;98265.09;;;19.79;77.84
60705;BME280;46545;38.014;-7.874;2024-03-23T02:40:02;98259.97;;;19.78;77.79
60705;BME280;46545;38.014;-7.874;2024-03-23T02:42:03;98269.72;;;19.70;77.87
60705;BME280;46545;38.014;-7.874;2024-03-23T02:44:04;98271.63;;;19.69;78.20
60705;BME280;46545;38.014;-7.874;2024-03-23T02:46:05;98259.69;;;19.79;76.73
60705;BME280;46545;38.014;-7.874;2024-03-23T02:48:05;98259.19;;;19.77;76.80
60705;BME280;46545;38.014;-7.874;2024-03-23T02:50:07;98270.69;;;19.74;77.24
60705;BME280;46545;38.014;-7.874;2024-03-23T02:52:08;98269.09;;;19.64;77.15
60705;BME280;46545;38.014;-7.874;2024-03-23T02:54:08;98292.94;;;19.85;75.86
60705;BME280;46545;38.014;-7.874;2024-03-23T02:56:09;98284.13;;;19.79;75.94
60705;BME280;46545;38.014;-7.874;2024-03-23T02:58:09;98279.47;;;19.88;75.03
60705;BME280;46545;38.014;-7.874;2024-03-23T03:00:10;98264.63;;;19.86;74.95
60705;BME280;46545;38.014;-7.874;2024-03-23T03:02:12;98276.28;;;19.86;73.44
60705;BME280;46545;38.014;-7.874;2024-03-23T03:04:13;98258.22;;;19.82;72.87
60705;BME280;46545;38.014;-7.874;2024-03-23T03:06:23;98253.88;;;19.98;70.56
60705;BME280;46545;38.014;-7.874;2024-03-23T03:08:24;98252.63;;;19.95;69.94
60705;BME280;46545;38.014;-7.874;2024-03-23T03:10:24;98253.88;;;19.98;70.02
60705;BME280;46545;38.014;-7.874;2024-03-23T03:12:25;98271.94;;;20.03;69.06
60705;BME280;46545;38.014;-7.874;2024-03-23T03:14:26;98279.63;;;20.01;68.99
60705;BME280;46545;38.014;-7.874;2024-03-23T03:16:26;98280.09;;;20.03;69.00
60705;BME280;46545;38.014;-7.874;2024-03-23T03:18:27;98276.44;;;20.07;68.50
60705;BME280;46545;38.014;-7.874;2024-03-23T03:20:28;98269.84;;;20.17;68.03
60705;BME280;46545;38.014;-7.874;2024-03-23T03:22:28;98276.28;;;20.04;69.00
60705;BME280;46545;38.014;-7.874;2024-03-23T03:24:29;98281.53;;;20.09;67.69
60705;BME280;46545;38.014;-7.874;2024-03-23T03:26:30;98291.94;;;20.07;67.83
60705;BME280;46545;38.014;-7.874;2024-03-23T03:28:34;98284.25;;;20.09;67.48
60705;BME280;46545;38.014;-7.874;2024-03-23T03:30:35;98270.34;;;20.10;67.04
60705;BME280;46545;38.014;-7.874;2024-03-23T03:32:35;98283.31;;;20.05;66.97
60705;BME280;46545;38.014;-7.874;2024-03-23T03:34:36;98282.50;;;20.04;66.96
60705;BME280;46545;38.014;-7.874;2024-03-23T03:36:37;98280.75;;;20.00;66.61
60705;BME280;46545;38.014;-7.874;2024-03-23T03:38:38;98280.13;;;20.11;65.85
60705;BME280;46545;38.014;-7.874;2024-03-23T03:40:41;98286.84;;;20.05;65.50
60705;BME280;46545;38.014;-7.874;2024-03-23T03:42:42;98303.47;;;20.04;65.49
60705;BME280;46545;38.014;-7.874;2024-03-23T03:44:43;98298.03;;;20.04;65.36
60705;BME280;46545;38.014;-7.874;2024-03-23T03:46:43;98278.69;;;20.05;64.87
60705;BME280;46545;38.014;-7.874;2024-03-23T03:48:44;98277.88;;;20.05;64.68
60705;BME280;46545;38.014;-7.874;2024-03-23T03:50:46;98270.78;;;20.21;64.00
60705;BME280;46545;38.014;-7.874;2024-03-23T03:52:47;98268.88;;;20.13;64.42
60705;BME280;46545;38.014;-7.874;2024-03-23T03:54:48;98286.66;;;20.10;64.95
60705;BME280;46545;38.014;-7.874;2024-03-23T03:56:48;98292.56;;;20.12;65.09
60705;BME280;46545;38.014;-7.874;2024-03-23T03:58:49;98289.53;;;20.14;65.46
60705;BME280;46545;38.014;-7.874;2024-03-23T04:00:50;98296.44;;;20.11;64.78
60705;BME280;46545;38.014;-7.874;2024-03-23T04:02:51;98295.63;;;20.11;65.64
60705;BME280;46545;38.014;-7.874;2024-03-23T04:04:51;98300.75;;;20.12;66.03
60705;BME280;46545;38.014;-7.874;2024-03-23T04:07:02;98308.72;;;20.09;66.47
60705;BME280;46545;38.014;-7.874;2024-03-23T04:09:03;98308.91;;;20.04;67.54
60705;BME280;46545;38.014;-7.874;2024-03-23T04:11:04;98309.88;;;19.99;68.85
60705;BME280;46545;38.014;-7.874;2024-03-23T04:13:04;98328.28;;;19.85;69.86
60705;BME280;46545;38.014;-7.874;2024-03-23T04:15:05;98308.13;;;19.77;70.58
60705;BME280;46545;38.014;-7.874;2024-03-23T04:17:06;98304.13;;;19.66;72.15
60705;BME280;46545;38.014;-7.874;2024-03-23T04:19:07;98301.53;;;19.52;73.57
60705;BME280;46545;38.014;-7.874;2024-03-23T04:21:08;98293.38;;;19.52;74.46
60705;BME280;46545;38.014;-7.874;2024-03-23T04:23:09;98295.94;;;19.57;73.66
60705;BME280;46545;38.014;-7.874;2024-03-23T04:25:10;98303.28;;;19.56;73.70
60705;BME280;46545;38.014;-7.874;2024-03-23T04:27:11;98307.44;;;19.63;72.27
60705;BME280;46545;38.014;-7.874;2024-03-23T04:29:11;98304.75;;;19.71;71.68
60705;BME280;46545;38.014;-7.874;2024-03-23T04:31:12;98306.84;;;19.66;69.31
60705;BME280;46545;38.014;-7.874;2024-03-23T04:33:13;98285.91;;;19.75;67.94
60705;BME280;46545;38.014;-7.874;2024-03-23T04:35:14;98267.66;;;19.93;65.59
60705;BME280;46545;38.014;-7.874;2024-03-23T04:37:14;98276.91;;;20.01;64.10
60705;BME280;46545;38.014;-7.874;2024-03-23T04:39:16;98299.50;;;20.01;62.10
60705;BME280;46545;38.014;-7.874;2024-03-23T04:41:17;98308.72;;;20.09;60.38
60705;BME280;46545;38.014;-7.874;2024-03-23T04:43:18;98298.97;;;20.16;58.68
60705;BME280;46545;38.014;-7.874;2024-03-23T04:45:19;98306.94;;;20.30;58.29
60705;BME280;46545;38.014;-7.874;2024-03-23T04:47:20;98297.50;;;20.36;58.18
60705;BME280;46545;38.014;-7.874;2024-03-23T04:49:20;98286.94;;;20.35;55.45
60705;BME280;46545;38.014;-7.874;2024-03-23T04:51:23;98299.19;;;20.59;54.96
60705;BME280;46545;38.014;-7.874;2024-03-23T04:53:24;98291.66;;;20.64;52.81
60705;BME280;46545;38.014;-7.874;2024-03-23T04:55:29;98285.84;;;20.74;51.82
60705;BME280;46545;38.014;-7.874;2024-03-23T04:57:31;98266.91;;;20.87;52.02
60705;BME280;46545;38.014;-7.874;2024-03-23T04:59:32;98261.41;;;20.95;51.65
60705;BME280;46545;38.014;-7.874;2024-03-23T05:01:33;98272.91;;;21.01;49.93
60705;BME280;46545;38.014;-7.874;2024-03-23T05:03:37;98268.72;;;21.04;51.02
60705;BME280;46545;38.014;-7.874;2024-03-23T05:05:37;98281.19;;;20.84;52.05
60705;BME280;46545;38.014;-7.874;2024-03-23T05:07:38;98281.41;;;20.70;52.54
60705;BME280;46545;38.014;-7.874;2024-03-23T05:09:39;98297.28;;;20.59;52.52
60705;BME280;46545;38.014;-7.874;2024-03-23T05:11:39;98283.19;;;20.48;53.69
60705;BME280;46545;38.014;-7.874;2024-03-23T05:13:40;98245.59;;;20.59;52.40
60705;BME280;46545;38.014;-7.874;2024-03-23T05:15:40;98269.88;;;20.55;51.64
60705;BME280;46545;38.014;-7.874;2024-03-23T05:17:41;98265.75;;;20.49;52.43
60705;BME280;46545;38.014;-7.874;2024-03-23T05:19:42;98269.47;;;20.36;53.43
60705;BME280;46545;38.014;-7.874;2024-03-23T05:21:42;98315.75;;;20.27;53.23
60705;BME280;46545;38.014;-7.874;2024-03-23T05:23:43;98310.66;;;20.26;51.99
60705;BME280;46545;38.014;-7.874;2024-03-23T05:25:44;98294.44;;;20.38;49.40
60705;BME280;46545;38.014;-7.874;2024-03-23T05:27:45;98278.34;;;20.71;47.71
60705;BME280;46545;38.014;-7.874;2024-03-23T05:29:45;98274.16;;;21.04;45.80
60705;BME280;46545;38.014;-7.874;2024-03-23T05:31:49;98279.09;;;21.10;45.70
60705;BME280;46545;38.014;-7.874;2024-03-23T05:33:50;98285.84;;;21.04;46.17
60705;BME280;46545;38.014;-7.874;2024-03-23T05:35:59;98314.22;;;21.03;46.36
60705;BME280;46545;38.014;-7.874;2024-03-23T05:37:59;98316.84;;;20.91;46.89
60705;BME280;46545;38.014;-7.874;2024-03-23T05:40:00;98310.16;;;20.88;47.35
60705;BME280;46545;38.014;-7.874;2024-03-23T05:42:01;98299.06;;;20.93;47.46
60705;BME280;46545;38.014;-7.874;2024-03-23T05:44:02;98299.53;;;20.95;47.31
60705;BME280;46545;38.014;-7.874;2024-03-23T05:46:03;98304.22;;;20.86;48.00
60705;BME280;46545;38.014;-7.874;2024-03-23T05:48:07;98291.56;;;20.90;48.67
60705;BME280;46545;38.014;-7.874;2024-03-23T05:50:08;98289.84;;;20.77;49.27
60705;BME280;46545;38.014;-7.874;2024-03-23T05:52:11;98286.16;;;20.82;50.29
60705;BME280;46545;38.014;-7.874;2024-03-23T05:54:12;98286.38;;;20.68;51.41
60705;BME280;46545;38.014;-7.874;2024-03-23T05:56:13;98276.16;;;20.47;53.05
60705;BME280;46545;38.014;-7.874;2024-03-23T05:58:17;98277.44;;;20.50;53.96
60705;BME280;46545;38.014;-7.874;2024-03-23T06:00:19;98276.81;;;20.44;54.69
60705;BME280;46545;38.014;-7.874;2024-03-23T06:02:19;98276.72;;;20.32;55.34
60705;BME280;46545;38.014;-7.874;2024-03-23T06:04:20;98293.16;;;20.35;56.15
60705;BME280;46545;38.014;-7.874;2024-03-23T06:06:22;98307.91;;;20.17;57.53
60705;BME280;46545;38.014;-7.874;2024-03-23T06:08:23;98286.31;;;20.21;58.15
60705;BME280;46545;38.014;-7.874;2024-03-23T06:10:24;98270.78;;;20.21;58.59
60705;BME280;46545;38.014;-7.874;2024-03-23T06:12:25;98272.41;;;20.22;58.73
60705;BME280;46545;38.014;-7.874;2024-03-23T06:14:25;98278.19;;;20.12;59.54
60705;BME280;46545;38.014;-7.874;2024-03-23T06:16:26;98286.38;;;20.03;59.78
60705;BME280;46545;38.014;-7.874;2024-03-23T06:18:28;98303.16;;;19.96;60.15
60705;BME280;46545;38.014;-7.874;2024-03-23T06:20:29;98296.41;;;20.03;59.62
60705;BME280;46545;38.014;-7.874;2024-03-23T06:22:29;98299.63;;;20.05;59.03
60705;BME280;46545;38.014;-7.874;2024-03-23T06:24:30;98303.63;;;19.99;57.89
60705;BME280;46545;38.014;-7.874;2024-03-23T06:26:30;98303.16;;;19.96;57.77
60705;BME280;46545;38.014;-7.874;2024-03-23T06:28:31;98304.91;;;20.10;57.40
60705;BME280;46545;38.014;-7.874;2024-03-23T06:30:32;98307.13;;;20.16;57.10
60705;BME280;46545;38.014;-7.874;2024-03-23T06:32:33;98297.38;;;20.15;56.97
60705;BME280;46545;38.014;-7.874;2024-03-23T06:34:33;98293.84;;;20.24;56.72
60705;BME280;46545;38.014;-7.874;2024-03-23T06:36:34;98280.69;;;20.34;56.01
60705;BME280;46545;38.014;-7.874;2024-03-23T06:38:35;98287.59;;;20.32;56.26
60705;BME280;46545;38.014;-7.874;2024-03-23T06:40:36;98274.59;;;20.38;56.14
60705;BME280;46545;38.014;-7.874;2024-03-23T06:42:37;98277.19;;;20.34;55.90
60705;BME280;46545;38.014;-7.874;2024-03-23T06:44:37;98284.22;;;20.26;55.81
60705;BME280;46545;38.014;-7.874;2024-03-23T06:46:38;98288.41;;;20.24;54.89
60705;BME280;46545;38.014;-7.874;2024-03-23T06:48:39;98288.69;;;20.31;53.62
60705;BME280;46545;38.014;-7.874;2024-03-23T06:50:39;98276.84;;;20.35;52.71
60705;BME280;46545;38.014;-7.874;2024-03-23T06:52:40;98276.47;;;20.46;51.60
60705;BME280;46545;38.014;-7.874;2024-03-23T06:54:41;98298.56;;;20.53;50.63
60705;BME280;46545;38.014;-7.874;2024-03-23T06:56:49;98312.97;;;20.62;50.71
60705;BME280;46545;38.014;-7.874;2024-03-23T06:58:49;98309.59;;;20.56;51.43
60705;BME280;46545;38.014;-7.874;2024-03-23T07:00:50;98290.88;;;20.64;51.70
60705;BME280;46545;38.014;-7.874;2024-03-23T07:02:51;98285.28;;;20.51;52.18
60705;BME280;46545;38.014;-7.874;2024-03-23T07:04:52;98275.97;;;20.52;52.33
60705;BME280;46545;38.014;-7.874;2024-03-23T07:06:52;98242.09;;;20.41;52.61
60705;BME280;46545;38.014;-7.874;2024-03-23T07:08:53;98222.03;;;20.63;51.58
60705;BME280;46545;38.014;-7.874;2024-03-23T07:10:54;98241.41;;;20.62;51.50
60705;BME280;46545;38.014;-7.874;2024-03-23T07:12:55;98247.75;;;20.74;49.21
60705;BME280;46545;38.014;-7.874;2024-03-23T07:14:55;98320.59;;;20.78;47.52
60705;BME280;46545;38.014;-7.874;2024-03-23T07:16:56;98339.47;;;20.83;48.52
60705;BME280;46545;38.014;-7.874;2024-03-23T07:18:57;98309.06;;;20.81;48.90
60705;BME280;46545;38.014;-7.874;2024-03-23T07:20:58;98309.06;;;20.81;49.76
60705;BME280;46545;38.014;-7.874;2024-03-23T07:22:58;98320.41;;;20.83;49.63
60705;BME280;46545;38.014;-7.874;2024-03-23T07:25:01;98326.66;;;20.83;49.01
60705;BME280;46545;38.014;-7.874;2024-03-23T07:27:01;98329.22;;;20.88;48.79
60705;BME280;46545;38.014;-7.874;2024-03-23T07:29:04;98334.34;;;20.90;48.94
60705;BME280;46545;38.014;-7.874;2024-03-23T07:31:06;98302.59;;;20.94;49.06
60705;BME280;46545;38.014;-7.874;2024-03-23T07:33:09;98267.78;;;21.00;49.11
60705;BME280;46545;38.014;-7.874;2024-03-23T07:35:09;98258.41;;;20.88;49.66
60705;BME280;46545;38.014;-7.874;2024-03-23T07:37:10;98255.59;;;21.27;44.89
60705;BME280;46545;38.014;-7.874;2024-03-23T07:39:11;98256.91;;;21.50;44.84
60705;BME280;46545;38.014;-7.874;2024-03-23T07:41:16;98264.88;;;21.55;45.68
60705;BME280;46545;38.014;-7.874;2024-03-23T07:43:20;98303.88;;;21.47;44.41
60705;BME280;46545;38.014;-7.874;2024-03-23T07:45:21;98303.84;;;21.56;44.67
60705;BME280;46545;38.014;-7.874;2024-03-23T07:47:21;98306.69;;;21.60;45.64
60705;BME280;46545;38.014;-7.874;2024-03-23T07:49:22;98306.44;;;21.52;46.29
60705;BME280;46545;38.014;-7.874;2024-03-23T07:51:23;98314.50;;;21.40;47.11
60705;BME280;46545;38.014;-7.874;2024-03-23T07:53:24;98327.91;;;21.24;48.37
60705;BME280;46545;38.014;-7.874;2024-03-23T07:55:24;98344.63;;;21.14;48.87
60705;BME280;46545;38.014;-7.874;2024-03-23T07:57:25;98368.97;;;21.19;49.34
60705;BME280;46545;38.014;-7.874;2024-03-23T07:59:26;98374.06;;;21.21;50.74
60705;BME280;46545;38.014;-7.874;2024-03-23T08:01:26;98349.38;;;21.26;51.61
60705;BME280;46545;38.014;-7.874;2024-03-23T08:03:27;98355.63;;;21.26;52.47
60705;BME280;46545;38.014;-7.874;2024-03-23T08:05:28;98358.88;;;21.20;53.23
60705;BME280;46545;38.014;-7.874;2024-03-23T08:07:28;98356.69;;;21.04;53.41
60705;BME280;46545;38.014;-7.874;2024-03-23T08:09:29;98364.06;;;21.04;53.97
60705;BME280;46545;38.014;-7.874;2024-03-23T08:11:31;98354.34;;;20.94;54.52
60705;BME280;46545;38.014;-7.874;2024-03-23T08:13:32;98351.16;;;21.22;54.01
60705;BME280;46545;38.014;-7.874;2024-03-23T08:15:33;98343.81;;;21.52;53.16
60705;BME280;46545;38.014;-7.874;2024-03-23T08:17:34;98335.03;;;21.67;52.67
60705;BME280;46545;38.014;-7.874;2024-03-23T08:19:34;98318.31;;;21.90;52.17
60705;BME280;46545;38.014;-7.874;2024-03-23T08:21:35;98318.75;;;22.13;51.55
60705;BME280;46545;38.014;-7.874;2024-03-23T08:23:36;98320.47;;;22.17;51.75
60705;BME280;46545;38.014;-7.874;2024-03-23T08:25:38;98325.91;;;22.26;50.97
60705;BME280;46545;38.014;-7.874;2024-03-23T08:27:39;98339.56;;;22.39;51.11
60705;BME280;46545;38.014;-7.874;2024-03-23T08:29:39;98353.47;;;22.46;51.21
60705;BME280;46545;38.014;-7.874;2024-03-23T08:31:40;98349.16;;;22.57;51.21
60705;BME280;46545;38.014;-7.874;2024-03-23T08:33:41;98347.94;;;22.67;50.97
60705;BME280;46545;38.014;-7.874;2024-03-23T08:35:55;98352.34;;;22.59;51.39
60705;BME280;46545;38.014;-7.874;2024-03-23T08:37:56;98347.41;;;22.98;50.06
60705;BME280;46545;38.014;-7.874;2024-03-23T08:39:57;98358.59;;;23.05;49.42
60705;BME280;46545;38.014;-7.874;2024-03-23T08:41:57;98359.22;;;23.88;47.05
60705;BME280;46545;38.014;-7.874;2024-03-23T08:43:58;98352.94;;;24.72;45.29
60705;BME280;46545;38.014;-7.874;2024-03-23T08:46:09;98357.91;;;25.30;43.77
60705;BME280;46545;38.014;-7.874;2024-03-23T08:48:10;98364.13;;;25.82;42.79
60705;BME280;46545;38.014;-7.874;2024-03-23T08:50:11;98368.03;;;25.81;42.45
60705;BME280;46545;38.014;-7.874;2024-03-23T08:52:11;98362.38;;;26.09;42.06
60705;BME280;46545;38.014;-7.874;2024-03-23T08:54:12;98369.16;;;25.96;42.31
60705;BME280;46545;38.014;-7.874;2024-03-23T08:56:13;98376.50;;;25.92;42.18
60705;BME280;46545;38.014;-7.874;2024-03-23T08:58:13;98361.06;;;25.16;44.00
60705;BME280;46545;38.014;-7.874;2024-03-23T09:00:18;98356.56;;;25.08;44.37
60705;BME280;46545;38.014;-7.874;2024-03-23T09:02:18;98369.47;;;24.92;44.82
60705;BME280;46545;38.014;-7.874;2024-03-23T09:04:19;98360.88;;;24.77;45.44
60705;BME280;46545;38.014;-7.874;2024-03-23T09:06:20;98366.72;;;25.08;44.74
60705;BME280;46545;38.014;-7.874;2024-03-23T09:08:21;98363.78;;;25.48;44.11
60705;BME280;46545;38.014;-7.874;2024-03-23T09:10:21;98368.28;;;26.11;42.59
60705;BME280;46545;38.014;-7.874;2024-03-23T09:12:23;98361.25;;;26.53;42.12
60705;BME280;46545;38.014;-7.874;2024-03-23T09:14:24;98365.56;;;26.73;41.67
60705;BME280;46545;38.014;-7.874;2024-03-23T09:16:24;98358.47;;;26.72;41.86
60705;BME280;46545;38.014;-7.874;2024-03-23T09:18:25;98357.91;;;27.09;40.91
60705;BME280;46545;38.014;-7.874;2024-03-23T09:20:27;98356.47;;;27.42;40.10
60705;BME280;46545;38.014;-7.874;2024-03-23T09:22:28;98361.19;;;27.42;40.06
60705;BME280;46545;38.014;-7.874;2024-03-23T09:24:29;98360.72;;;27.13;40.33
60705;BME280;46545;38.014;-7.874;2024-03-23T09:26:29;98372.81;;;26.62;41.18
60705;BME280;46545;38.014;-7.874;2024-03-23T09:28:30;98385.03;;;26.45;42.10
60705;BME280;46545;38.014;-7.874;2024-03-23T09:30:32;98395.16;;;26.02;43.00
60705;BME280;46545;38.014;-7.874;2024-03-23T09:32:33;98385.66;;;25.29;44.72
60705;BME280;46545;38.014;-7.874;2024-03-23T09:34:34;98387.50;;;24.49;46.99
60705;BME280;46545;38.014;-7.874;2024-03-23T09:36:35;98387.75;;;24.15;48.58
60705;BME280;46545;38.014;-7.874;2024-03-23T09:38:35;98392.72;;;24.26;48.94
60705;BME280;46545;38.014;-7.874;2024-03-23T09:40:41;98395.94;;;24.56;48.61
60705;BME280;46545;38.014;-7.874;2024-03-23T09:42:50;98390.25;;;24.93;47.53
60705;BME280;46545;38.014;-7.874;2024-03-23T09:44:51;98384.94;;;25.48;46.39
60705;BME280;46545;38.014;-7.874;2024-03-23T09:46:52;98376.03;;;26.06;44.98
60705;BME280;46545;38.014;-7.874;2024-03-23T09:48:53;98386.28;;;25.73;45.40
60705;BME280;46545;38.014;-7.874;2024-03-23T09:50:54;98382.56;;;25.30;46.03
60705;BME280;46545;38.014;-7.874;2024-03-23T09:52:54;98378.84;;;25.07;46.28
60705;BME280;46545;38.014;-7.874;2024-03-23T09:54:55;98375.72;;;24.92;47.12
60705;BME280;46545;38.014;-7.874;2024-03-23T09:56:56;98378.50;;;25.08;45.72
60705;BME280;46545;38.014;-7.874;2024-03-23T09:59:01;98380.72;;;25.34;46.32
60705;BME280;46545;38.014;-7.874;2024-03-23T10:01:02;98385.34;;;25.66;45.96
60705;BME280;46545;38.014;-7.874;2024-03-23T10:03:04;98388.75;;;25.94;45.25
60705;BME280;46545;38.014;-7.874;2024-03-23T10:05:22;98394.28;;;25.63;45.74
60705;BME280;46545;38.014;-7.874;2024-03-23T10:07:23;98388.63;;;25.55;46.05
60705;BME280;46545;38.014;-7.874;2024-03-23T10:09:25;98390.97;;;25.37;46.63
60705;BME280;46545;38.014;-7.874;2024-03-23T10:11:26;98387.16;;;25.10;46.94
60705;BME280;46545;38.014;-7.874;2024-03-23T10:13:29;98388.09;;;24.86;47.20
60705;BME280;46545;38.014;-7.874;2024-03-23T10:15:34;98372.22;;;24.92;47.53
60705;BME280;46545;38.014;-7.874;2024-03-23T10:17:35;98364.31;;;24.59;48.20
60705;BME280;46545;38.014;-7.874;2024-03-23T10:19:35;98366.09;;;24.67;47.88
60705;BME280;46545;38.014;-7.874;2024-03-23T10:21:36;98367.97;;;24.79;48.10
60705;BME280;46545;38.014;-7.874;2024-03-23T10:23:39;98376.81;;;24.88;46.81
60705;BME280;46545;38.014;-7.874;2024-03-23T10:25:40;98387.25;;;25.14;46.00
60705;BME280;46545;38.014;-7.874;2024-03-23T10:27:41;98374.31;;;24.98;45.37
60705;BME280;46545;38.014;-7.874;2024-03-23T10:29:47;98382.28;;;25.04;45.75
60705;BME280;46545;38.014;-7.874;2024-03-23T10:31:48;98386.75;;;25.24;45.50
60705;BME280;46545;38.014;-7.874;2024-03-23T10:33:50;98384.06;;;25.28;45.44
60705;BME280;46545;38.014;-7.874;2024-03-23T10:35:50;98384.66;;;25.53;44.40
60705;BME280;46545;38.014;-7.874;2024-03-23T10:37:52;98375.94;;;25.67;44.17
60705;BME280;46545;38.014;-7.874;2024-03-23T10:39:55;98381.75;;;25.46;42.97
60705;BME280;46545;38.014;-7.874;2024-03-23T10:41:57;98388.66;;;25.75;42.74
60705;BME280;46545;38.014;-7.874;2024-03-23T10:43:58;98381.28;;;25.95;42.97
60705;BME280;46545;38.014;-7.874;2024-03-23T10:46:00;98368.78;;;25.97;43.24
60705;BME280;46545;38.014;-7.874;2024-03-23T10:48:02;98372.47;;;26.25;43.25
60705;BME280;46545;38.014;-7.874;2024-03-23T10:50:06;98377.75;;;26.14;42.85
60705;BME280;46545;38.014;-7.874;2024-03-23T10:52:07;98382.69;;;26.05;42.81
60705;BME280;46545;38.014;-7.874;2024-03-23T10:54:08;98373.69;;;25.88;43.59
60705;BME280;46545;38.014;-7.874;2024-03-23T10:56:14;98377.94;;;25.50;44.70
60705;BME280;46545;38.014;-7.874;2024-03-23T10:58:17;98387.63;;;25.28;45.13
60705;BME280;46545;38.014;-7.874;2024-03-23T11:00:19;98377.78;;;25.27;45.28
60705;BME280;46545;38.014;-7.874;2024-03-23T11:02:22;98365.13;;;25.39;45.42
60705;BME280;46545;38.014;-7.874;2024-03-23T11:04:38;98370.38;;;25.63;43.62
60705;BME280;46545;38.014;-7.874;2024-03-23T11:06:39;98362.09;;;25.79;43.67
60705;BME280;46545;38.014;-7.874;2024-03-23T11:08:41;98364.94;;;25.83;44.49
60705;BME280;46545;38.014;-7.874;2024-03-23T11:10:45;98359.47;;;26.02;42.82
60705;BME280;46545;38.014;-7.874;2024-03-23T11:12:46;98358.34;;;25.87;42.61
60705;BME280;46545;38.014;-7.874;2024-03-23T11:14:47;98362.94;;;26.18;42.39
60705;BME280;46545;38.014;-7.874;2024-03-23T11:17:08;98366.47;;;26.00;43.28
60705;BME280;46545;38.014;-7.874;2024-03-23T11:19:34;98352.25;;;25.94;41.30
60705;BME280;46545;38.014;-7.874;2024-03-23T11:21:53;98349.66;;;26.01;39.97
60705;BME280;46545;38.014;-7.874;2024-03-23T11:23:54;98352.69;;;25.96;38.40
60705;BME280;46545;38.014;-7.874;2024-03-23T11:25:54;98365.38;;;26.04;38.94
60705;BME280;46545;38.014;-7.874;2024-03-23T11:28:11;98363.69;;;26.15;39.42
60705;BME280;46545;38.014;-7.874;2024-03-23T11:30:33;98362.41;;;25.74;41.24